Time;durP1;ratioP1;P1;durP2;ratioP2;P2;SDS_P1;SDS_P2;PMS_P1;PMS_P2;Temp;Humidity;BMP_temperature;BMP_pressure;BME280_temperature;BME280_humidity;BME280_pressure;Samples;Min_cycle;Max_cycle;Signal;HPM_P1;HPM_P2
2022/03/31 00:00:42;;;;;;;10.48;5.93;;;17.80;58.40;;;;;;5045566;28;20083;-58
2022/03/31 00:03:09;;;;;;;10.48;5.28;;;17.80;58.40;;;;;;5045682;28;20085;-58
2022/03/31 00:05:36;;;;;;;11.32;6.13;;;17.80;58.40;;;;;;5048621;28;20028;-58
2022/03/31 00:08:06;;;;;;;9.48;5.53;;;17.80;58.40;;;;;;5046942;28;20444;-58
2022/03/31 00:10:36;;;;;;;9.82;5.30;;;17.80;58.50;;;;;;5047400;28;20052;-58
2022/03/31 00:13:04;;;;;;;9.45;5.32;;;17.80;58.50;;;;;;5045290;28;20025;-58
2022/03/31 00:15:30;;;;;;;10.88;5.70;;;17.80;58.50;;;;;;5046193;28;20803;-59
2022/03/31 00:17:56;;;;;;;9.95;5.63;;;17.80;58.50;;;;;;5047885;28;20485;-58
2022/03/31 00:20:21;;;;;;;10.18;5.65;;;17.80;58.50;;;;;;5039379;28;20028;-58
2022/03/31 00:22:47;;;;;;;9.75;5.53;;;17.80;58.50;;;;;;5046393;28;20033;-59
2022/03/31 00:25:13;;;;;;;10.85;5.63;;;17.80;58.60;;;;;;5046790;28;20509;-58
2022/03/31 00:27:39;;;;;;;9.88;5.00;;;17.70;58.50;;;;;;5046518;28;20183;-58
2022/03/31 00:30:06;;;;;;;12.32;5.40;;;17.70;58.50;;;;;;5047436;28;20456;-58
2022/03/31 00:32:33;;;;;;;9.13;4.93;;;17.70;58.60;;;;;;5047894;28;20056;-58
2022/03/31 00:34:58;;;;;;;9.38;5.43;;;17.70;58.50;;;;;;5045581;28;20036;-58
2022/03/31 00:37:24;;;;;;;10.30;5.30;;;17.70;58.50;;;;;;5040398;28;20057;-59
2022/03/31 00:39:49;;;;;;;8.55;4.90;;;17.70;58.50;;;;;;5042367;28;20029;-58
2022/03/31 00:42:16;;;;;;;11.15;5.35;;;17.70;58.50;;;;;;5044895;28;20366;-58
2022/03/31 00:44:42;;;;;;;9.75;5.70;;;17.70;58.50;;;;;;5046537;28;20401;-58
2022/03/31 00:47:08;;;;;;;8.65;4.93;;;17.70;58.50;;;;;;5046821;28;20055;-58
2022/03/31 00:49:34;;;;;;;8.80;5.18;;;17.70;58.50;;;;;;5046847;28;20072;-58
2022/03/31 00:52:00;;;;;;;8.15;4.85;;;17.70;58.60;;;;;;5041217;28;20518;-58
2022/03/31 00:54:26;;;;;;;8.95;4.78;;;17.70;58.50;;;;;;5046038;28;20148;-58
2022/03/31 00:56:52;;;;;;;9.20;5.00;;;17.70;58.60;;;;;;5046149;28;20032;-58
2022/03/31 00:59:18;;;;;;;8.70;4.90;;;17.60;58.50;;;;;;5047422;28;20078;-58
2022/03/31 01:01:44;;;;;;;9.27;5.00;;;17.60;58.50;;;;;;5045709;28;20144;-58
2022/03/31 01:04:11;;;;;;;10.48;5.22;;;17.60;58.50;;;;;;5046058;28;20509;-59
2022/03/31 01:06:36;;;;;;;8.93;4.78;;;17.60;58.50;;;;;;5045041;28;20013;-59
2022/03/31 01:09:03;;;;;;;9.48;5.05;;;17.60;58.50;;;;;;5043519;28;20536;-58
2022/03/31 01:11:31;;;;;;;8.23;4.63;;;17.60;58.50;;;;;;5045752;28;20525;-58
2022/03/31 01:13:58;;;;;;;9.23;4.80;;;17.60;58.50;;;;;;5046038;28;20044;-58
2022/03/31 01:16:24;;;;;;;9.80;5.05;;;17.60;58.50;;;;;;5046299;28;20401;-58
2022/03/31 01:18:51;;;;;;;9.15;4.82;;;17.60;58.50;;;;;;5046663;28;20040;-58
2022/03/31 01:21:17;;;;;;;9.82;5.13;;;17.60;58.50;;;;;;5045653;28;20481;-58
2022/03/31 01:23:44;;;;;;;9.30;4.68;;;17.60;58.50;;;;;;5048211;28;20037;-58
2022/03/31 01:26:10;;;;;;;8.93;4.65;;;17.60;58.50;;;;;;5040366;28;20029;-58
2022/03/31 01:28:45;;;;;;;8.60;4.90;;;17.50;58.40;;;;;;5045298;28;20033;-59
2022/03/31 01:31:10;;;;;;;8.20;4.70;;;17.50;58.40;;;;;;5045631;28;20406;-58
2022/03/31 01:33:40;;;;;;;7.38;4.50;;;17.50;58.40;;;;;;5046211;28;20044;-58
2022/03/31 01:36:07;;;;;;;8.32;4.25;;;17.50;58.30;;;;;;5044568;28;20512;-59
2022/03/31 01:38:33;;;;;;;7.68;4.40;;;17.50;58.40;;;;;;5046561;28;20081;-58
2022/03/31 01:40:59;;;;;;;8.27;4.47;;;17.50;58.30;;;;;;5042339;28;20393;-58
2022/03/31 01:43:25;;;;;;;9.25;4.50;;;17.50;58.40;;;;;;5044883;28;20025;-58
2022/03/31 01:45:52;;;;;;;9.27;5.15;;;17.50;58.30;;;;;;5044499;28;20032;-58
2022/03/31 01:48:19;;;;;;;9.23;4.47;;;17.50;58.40;;;;;;5040069;28;20052;-58
2022/03/31 01:50:45;;;;;;;9.40;4.45;;;17.50;58.40;;;;;;5047242;28;20033;-58
2022/03/31 01:53:10;;;;;;;8.63;4.78;;;17.50;58.40;;;;;;5044626;28;20040;-58
2022/03/31 01:55:36;;;;;;;9.57;5.00;;;17.50;58.30;;;;;;5045605;28;20617;-58
2022/03/31 01:58:03;;;;;;;8.70;4.65;;;17.50;58.30;;;;;;5045141;28;20561;-58
2022/03/31 02:00:28;;;;;;;7.35;4.30;;;17.50;58.40;;;;;;5044761;28;20498;-58
2022/03/31 02:02:54;;;;;;;8.18;4.45;;;17.50;58.40;;;;;;5045030;28;20040;-58
2022/03/31 02:05:21;;;;;;;7.63;4.38;;;17.50;58.40;;;;;;5045552;28;20091;-58
2022/03/31 02:07:47;;;;;;;8.07;4.15;;;17.50;58.40;;;;;;5045408;28;20094;-58
2022/03/31 02:10:12;;;;;;;8.02;4.38;;;17.40;58.30;;;;;;5041283;28;20104;-58
2022/03/31 02:12:39;;;;;;;8.32;4.43;;;17.40;58.30;;;;;;5043281;28;20037;-58
2022/03/31 02:15:05;;;;;;;7.88;4.40;;;17.40;58.30;;;;;;5045829;28;20079;-58
2022/03/31 02:17:31;;;;;;;8.65;4.40;;;17.40;58.30;;;;;;5043090;28;20401;-58
2022/03/31 02:19:57;;;;;;;7.95;4.30;;;17.40;58.40;;;;;;5043868;28;20032;-58
2022/03/31 02:22:22;;;;;;;8.35;4.50;;;17.40;58.30;;;;;;5046029;28;20154;-58
2022/03/31 02:24:48;;;;;;;8.48;4.70;;;17.40;58.40;;;;;;5045225;28;20115;-58
2022/03/31 02:27:14;;;;;;;8.20;4.45;;;17.40;58.30;;;;;;5044397;28;20025;-59
2022/03/31 02:29:40;;;;;;;7.30;4.18;;;17.40;58.30;;;;;;5046299;28;20078;-58
2022/03/31 02:32:07;;;;;;;7.55;4.40;;;17.40;58.30;;;;;;5041121;28;20021;-58
2022/03/31 02:34:33;;;;;;;7.75;4.38;;;17.40;58.40;;;;;;5044477;28;20187;-58
2022/03/31 02:36:59;;;;;;;8.77;4.55;;;17.40;58.40;;;;;;5046400;28;20584;-58
2022/03/31 02:39:24;;;;;;;7.97;4.35;;;17.30;58.30;;;;;;5043365;28;20197;-70
2022/03/31 02:41:50;;;;;;;10.02;4.55;;;17.40;58.40;;;;;;5048592;28;20409;-70
2022/03/31 02:44:16;;;;;;;8.77;4.50;;;17.40;58.40;;;;;;5049955;28;20045;-70
2022/03/31 02:46:42;;;;;;;8.02;4.70;;;17.40;58.40;;;;;;5047884;28;20020;-70
2022/03/31 02:49:08;;;;;;;7.85;4.30;;;17.30;58.40;;;;;;5048987;28;20029;-69
2022/03/31 02:51:33;;;;;;;8.60;4.47;;;17.40;58.40;;;;;;5047871;28;20025;-69
2022/03/31 02:56:43;;;;;;;8.10;4.60;;;17.30;58.40;;;;;;5045468;28;20048;-69
2022/03/31 02:59:09;;;;;;;8.55;4.40;;;17.30;58.40;;;;;;5043190;28;20033;-69
2022/03/31 03:01:34;;;;;;;8.05;4.43;;;17.30;58.30;;;;;;5046600;28;20044;-69
2022/03/31 03:04:01;;;;;;;7.40;4.30;;;17.30;58.40;;;;;;5046142;28;20031;-70
2022/03/31 03:06:26;;;;;;;7.80;4.57;;;17.30;58.40;;;;;;5049112;28;20033;-70
2022/03/31 03:08:52;;;;;;;7.85;4.78;;;17.30;58.40;;;;;;5049241;28;20401;-70
2022/03/31 03:11:18;;;;;;;8.35;4.47;;;17.30;58.40;;;;;;5048011;28;20028;-69
2022/03/31 03:13:45;;;;;;;7.28;4.38;;;17.30;58.40;;;;;;5048445;28;22382;-70
2022/03/31 03:16:11;;;;;;;7.22;4.38;;;17.30;58.40;;;;;;5044129;28;20025;-70
2022/03/31 03:18:37;;;;;;;9.70;4.90;;;17.30;58.40;;;;;;5047287;28;20035;-69
2022/03/31 03:21:04;;;;;;;8.27;4.93;;;17.20;58.30;;;;;;5043308;28;20025;-71
2022/03/31 03:23:32;;;;;;;7.50;4.40;;;17.30;58.40;;;;;;5048838;28;20528;-70
2022/03/31 03:25:58;;;;;;;8.38;4.63;;;17.30;58.40;;;;;;5042460;28;20120;-69
2022/03/31 03:28:24;;;;;;;8.20;4.75;;;17.30;58.50;;;;;;5043484;28;20608;-68
2022/03/31 03:30:50;;;;;;;9.55;5.15;;;17.20;58.40;;;;;;5047006;28;20040;-69
2022/03/31 03:33:15;;;;;;;7.70;4.38;;;17.20;58.50;;;;;;5046727;28;20407;-69
2022/03/31 03:35:41;;;;;;;8.18;4.60;;;17.30;59.90;;;;;;5048586;28;20489;-70
2022/03/31 03:38:07;;;;;;;8.65;4.90;;;17.30;59.80;;;;;;5046627;28;20463;-69
2022/03/31 03:40:34;;;;;;;10.25;4.70;;;17.20;59.80;;;;;;5040536;28;20052;-69
2022/03/31 03:43:00;;;;;;;8.32;4.65;;;17.30;59.90;;;;;;5046228;28;20024;-70
2022/03/31 03:45:25;;;;;;;8.77;5.10;;;17.20;59.90;;;;;;5044882;28;20493;-69
2022/03/31 03:47:51;;;;;;;9.30;4.80;;;17.30;59.80;;;;;;5046647;28;20561;-69
2022/03/31 03:50:17;;;;;;;9.45;4.80;;;17.30;59.80;;;;;;5045845;28;20452;-69
2022/03/31 03:52:43;;;;;;;8.35;4.57;;;17.20;59.80;;;;;;5045295;28;20375;-69
2022/03/31 03:55:10;;;;;;;8.40;4.80;;;17.20;59.80;;;;;;5041250;28;20033;-71
2022/03/31 03:57:35;;;;;;;9.05;4.60;;;17.20;59.70;;;;;;5044063;28;20574;-69
2022/03/31 04:00:01;;;;;;;9.55;4.88;;;17.20;59.80;;;;;;5047410;28;20086;-69
2022/03/31 04:02:27;;;;;;;10.23;4.70;;;17.20;59.90;;;;;;5044200;28;20025;-70
2022/03/31 04:04:53;;;;;;;7.70;4.90;;;17.20;59.90;;;;;;5045989;28;20033;-70
2022/03/31 04:07:18;;;;;;;9.05;4.80;;;17.20;59.90;;;;;;5044106;28;20036;-69
2022/03/31 04:09:44;;;;;;;8.25;4.43;;;17.20;59.90;;;;;;5046365;28;20115;-70
2022/03/31 04:12:10;;;;;;;9.65;4.28;;;17.20;59.90;;;;;;5045877;28;20036;-70
2022/03/31 04:14:36;;;;;;;7.43;4.30;;;17.20;59.90;;;;;;5048054;28;20033;-69
2022/03/31 04:17:02;;;;;;;8.10;4.57;;;17.20;59.90;;;;;;5047109;28;20393;-70
2022/03/31 04:19:28;;;;;;;8.90;4.65;;;17.20;59.90;;;;;;5044283;28;20429;-70
2022/03/31 04:21:53;;;;;;;8.38;4.22;;;17.20;59.90;;;;;;5047434;28;20071;-69
2022/03/31 04:24:19;;;;;;;9.15;4.75;;;17.20;59.90;;;;;;5047058;28;20405;-69
2022/03/31 04:26:45;;;;;;;9.23;4.88;;;17.20;59.90;;;;;;5042643;28;20558;-69
2022/03/31 04:29:11;;;;;;;7.95;4.63;;;17.20;59.90;;;;;;5045973;28;20070;-69
2022/03/31 04:31:44;;;;;;;8.60;4.30;;;17.20;59.90;;;;;;5046268;28;20041;-68
2022/03/31 04:34:10;;;;;;;8.40;4.68;;;17.20;59.90;;;;;;5044561;28;20044;-68
2022/03/31 04:36:36;;;;;;;7.70;4.60;;;17.20;59.90;;;;;;5041219;28;20028;-68
2022/03/31 04:39:02;;;;;;;8.23;4.40;;;17.20;59.90;;;;;;5042099;28;20049;-68
2022/03/31 04:41:27;;;;;;;7.85;4.40;;;17.20;59.90;;;;;;5047014;28;20043;-68
2022/03/31 04:43:53;;;;;;;7.53;4.40;;;17.20;59.90;;;;;;5041818;28;20025;-68
2022/03/31 04:46:19;;;;;;;8.82;4.30;;;17.20;59.90;;;;;;5043409;28;20421;-68
2022/03/31 04:48:45;;;;;;;9.23;4.60;;;17.20;60.30;;;;;;5044564;28;20040;-68
2022/03/31 04:51:10;;;;;;;7.68;3.95;;;17.20;60.60;;;;;;5042870;28;20048;-68
2022/03/31 04:53:36;;;;;;;8.98;4.55;;;17.20;60.80;;;;;;5046129;28;20029;-68
2022/03/31 04:56:02;;;;;;;7.75;4.40;;;17.20;60.70;;;;;;5037814;28;20503;-69
2022/03/31 04:58:28;;;;;;;8.90;4.60;;;17.20;60.50;;;;;;5037781;28;20025;-67
2022/03/31 05:00:53;;;;;;;7.70;4.20;;;17.20;60.30;;;;;;5045100;28;20123;-67
2022/03/31 05:03:19;;;;;;;8.32;4.22;;;17.20;60.30;;;;;;5042985;28;20029;-67
2022/03/31 05:05:45;;;;;;;9.02;4.10;;;17.20;60.30;;;;;;5044545;28;20032;-67
2022/03/31 05:08:11;;;;;;;7.75;3.83;;;17.30;60.50;;;;;;5043371;28;20104;-67
2022/03/31 05:10:37;;;;;;;8.82;4.20;;;17.20;60.50;;;;;;5042716;28;20032;-66
2022/03/31 05:13:03;;;;;;;8.25;4.15;;;17.20;60.60;;;;;;5044403;28;20021;-67
2022/03/31 05:15:28;;;;;;;10.43;4.18;;;17.30;60.70;;;;;;5044538;28;20029;-67
2022/03/31 05:17:54;;;;;;;9.30;4.35;;;17.20;60.60;;;;;;5044902;28;20024;-67
2022/03/31 05:20:21;;;;;;;14.02;4.70;;;17.20;60.60;;;;;;5037734;28;20104;-67
2022/03/31 05:22:47;;;;;;;10.88;4.22;;;17.20;61.70;;;;;;5042494;28;20549;-67
2022/03/31 05:25:13;;;;;;;9.55;4.13;;;17.20;62.90;;;;;;5039974;28;20064;-68
2022/03/31 05:27:46;;;;;;;11.70;4.15;;;17.30;63.80;;;;;;5043670;28;20060;-67
2022/03/31 05:30:13;;;;;;;9.05;3.95;;;17.30;63.40;;;;;;5042086;28;20029;-71
2022/03/31 05:32:39;;;;;;;12.02;4.20;;;17.30;62.80;;;;;;5042596;28;20567;-68
2022/03/31 05:35:07;;;;;;;9.85;3.90;;;17.30;62.90;;;;;;5043229;28;20036;-70
2022/03/31 05:37:33;;;;;;;8.68;3.90;;;17.20;62.90;;;;;;5044536;28;20494;-69
2022/03/31 05:40:03;;;;;;;10.60;4.20;;;17.30;62.60;;;;;;5042708;28;20057;-68
2022/03/31 05:42:28;;;;;;;9.75;4.63;;;17.20;62.40;;;;;;5041663;28;20029;-68
2022/03/31 05:44:54;;;;;;;10.40;4.28;;;17.20;62.60;;;;;;5046350;28;20519;-68
2022/03/31 05:47:20;;;;;;;9.48;4.40;;;17.20;62.60;;;;;;5046056;28;20363;-68
2022/03/31 05:49:45;;;;;;;11.50;4.72;;;17.20;62.60;;;;;;5044561;28;20052;-69
2022/03/31 05:52:11;;;;;;;12.80;4.35;;;17.20;62.10;;;;;;5045875;28;20108;-69
2022/03/31 05:54:37;;;;;;;9.82;4.18;;;17.20;62.20;;;;;;5045374;28;20057;-68
2022/03/31 05:57:02;;;;;;;11.57;4.35;;;17.20;62.40;;;;;;5046137;28;20032;-68
2022/03/31 05:59:28;;;;;;;12.82;4.65;;;17.20;62.50;;;;;;5054783;28;20029;-68
2022/03/31 06:01:54;;;;;;;15.20;4.40;;;17.10;62.10;;;;;;5051157;28;20021;-68
2022/03/31 06:04:21;;;;;;;9.73;4.38;;;17.10;62.60;;;;;;5049194;28;20102;-68
2022/03/31 06:06:50;;;;;;;9.85;4.30;;;17.10;62.40;;;;;;5045637;28;20100;-67
2022/03/31 06:09:15;;;;;;;10.23;4.03;;;17.10;62.40;;;;;;5045179;28;20032;-67
2022/03/31 06:11:42;;;;;;;10.20;4.30;;;17.10;62.40;;;;;;5049889;28;20032;-68
2022/03/31 06:14:09;;;;;;;11.15;4.47;;;17.10;62.40;;;;;;5049945;28;20171;-68
2022/03/31 06:16:35;;;;;;;12.90;4.15;;;17.10;62.30;;;;;;5051128;28;20068;-67
2022/03/31 06:19:00;;;;;;;13.32;4.40;;;17.10;62.20;;;;;;5046129;28;20091;-68
2022/03/31 06:21:26;;;;;;;8.98;4.18;;;17.10;62.10;;;;;;5052124;28;20025;-68
2022/03/31 06:23:52;;;;;;;11.07;4.30;;;17.10;62.10;;;;;;5052442;28;20028;-68
2022/03/31 06:26:17;;;;;;;12.25;3.83;;;17.10;62.00;;;;;;5051709;28;20028;-67
2022/03/31 06:28:43;;;;;;;15.30;4.57;;;17.10;62.00;;;;;;5051901;28;20497;-68
2022/03/31 06:31:09;;;;;;;11.35;4.13;;;17.10;61.90;;;;;;5051955;28;20429;-68
2022/03/31 06:33:34;;;;;;;11.93;4.20;;;17.10;61.90;;;;;;5052110;28;20463;-68
2022/03/31 06:36:00;;;;;;;11.20;3.83;;;17.10;61.80;;;;;;5053321;28;20033;-67
2022/03/31 06:38:26;;;;;;;9.52;3.85;;;17.10;61.80;;;;;;5053649;28;20040;-68
2022/03/31 06:41:06;;;;;;;12.23;3.97;;;17.10;61.70;;;;;;5051944;28;20512;-68
2022/03/31 06:43:35;;;;;;;11.18;3.75;;;17.10;61.60;;;;;;5049304;28;20037;-68
2022/03/31 06:46:01;;;;;;;11.30;3.78;;;17.10;61.60;;;;;;5050123;28;20043;-68
2022/03/31 06:48:26;;;;;;;10.40;3.85;;;17.00;61.50;;;;;;5052578;28;20107;-68
2022/03/31 06:50:52;;;;;;;12.90;3.53;;;17.00;61.40;;;;;;5052819;28;20401;-68
2022/03/31 06:53:18;;;;;;;12.20;3.63;;;17.00;61.40;;;;;;5051781;28;20028;-68
2022/03/31 06:55:44;;;;;;;10.77;3.58;;;17.00;61.40;;;;;;5052724;28;20037;-68
2022/03/31 06:58:10;;;;;;;9.85;3.40;;;17.00;61.40;;;;;;5051608;28;20068;-68
2022/03/31 07:00:36;;;;;;;10.82;3.75;;;17.00;61.50;;;;;;5051264;28;20052;-67
2022/03/31 07:03:01;;;;;;;9.00;3.10;;;17.00;61.50;;;;;;5052649;28;20067;-68
2022/03/31 07:05:27;;;;;;;8.50;3.17;;;17.00;61.50;;;;;;5052844;28;20036;-68
2022/03/31 07:07:53;;;;;;;8.73;3.20;;;17.00;61.50;;;;;;5051482;28;20025;-68
2022/03/31 07:10:18;;;;;;;13.48;3.50;;;17.00;61.40;;;;;;5051315;28;20071;-69
2022/03/31 07:12:44;;;;;;;10.27;3.60;;;17.00;61.40;;;;;;5052251;28;20071;-68
2022/03/31 07:15:10;;;;;;;9.13;3.38;;;17.00;61.40;;;;;;5052163;28;20033;-68
2022/03/31 07:17:36;;;;;;;8.45;3.08;;;17.00;61.40;;;;;;5051337;28;20095;-68
2022/03/31 07:20:03;;;;;;;10.45;2.97;;;16.90;61.30;;;;;;5051953;28;20127;-68
2022/03/31 07:22:28;;;;;;;8.15;3.10;;;17.00;61.40;;;;;;5051581;28;20083;-68
2022/03/31 07:24:54;;;;;;;8.88;3.15;;;16.90;61.30;;;;;;5047890;28;20033;-68
2022/03/31 07:27:20;;;;;;;7.22;2.80;;;16.90;61.30;;;;;;5048706;28;20037;-67
2022/03/31 07:29:45;;;;;;;8.80;2.90;;;16.90;61.30;;;;;;5050269;28;20524;-68
2022/03/31 07:32:11;;;;;;;8.23;3.00;;;16.90;61.20;;;;;;5047762;28;20100;-68
2022/03/31 07:34:37;;;;;;;10.45;3.03;;;16.90;61.10;;;;;;5048739;28;20493;-68
2022/03/31 07:37:04;;;;;;;6.78;2.55;;;16.90;61.10;;;;;;5047613;28;20024;-68
2022/03/31 07:39:29;;;;;;;8.38;3.00;;;16.90;61.10;;;;;;5047480;28;20553;-68
2022/03/31 07:41:55;;;;;;;10.52;2.88;;;16.90;61.00;;;;;;5048827;28;20029;-67
2022/03/31 07:44:21;;;;;;;6.03;2.53;;;16.90;61.00;;;;;;5048756;28;20416;-68
2022/03/31 07:46:46;;;;;;;6.38;2.70;;;16.90;61.00;;;;;;5048293;28;20448;-68
2022/03/31 07:49:14;;;;;;;7.90;2.40;;;16.90;61.00;;;;;;5048440;28;20528;-68
2022/03/31 07:51:39;;;;;;;7.20;2.58;;;16.90;61.00;;;;;;5047736;28;20036;-68
2022/03/31 07:54:05;;;;;;;6.63;2.65;;;16.80;60.80;;;;;;5047362;28;20021;-68
2022/03/31 07:56:30;;;;;;;6.97;2.30;;;16.90;60.90;;;;;;5049133;28;20043;-68
2022/03/31 07:58:56;;;;;;;8.57;2.55;;;16.80;60.80;;;;;;5048402;28;20045;-68
2022/03/31 08:01:22;;;;;;;5.05;2.13;;;16.80;60.80;;;;;;5047989;28;20064;-67
2022/03/31 08:03:48;;;;;;;8.63;2.53;;;16.80;60.70;;;;;;5047419;28;20024;-68
2022/03/31 08:06:14;;;;;;;5.93;2.42;;;16.80;60.70;;;;;;5047986;28;20489;-68
2022/03/31 08:08:39;;;;;;;5.57;2.03;;;16.80;60.70;;;;;;5048444;28;20082;-68
2022/03/31 08:11:05;;;;;;;6.75;2.50;;;16.80;60.60;;;;;;5047153;28;20033;-68
2022/03/31 08:13:30;;;;;;;7.22;2.35;;;16.80;60.60;;;;;;5047752;28;20029;-68
2022/03/31 08:15:57;;;;;;;6.85;2.20;;;16.80;60.60;;;;;;5047886;28;20025;-68
2022/03/31 08:18:26;;;;;;;6.97;2.30;;;16.80;60.50;;;;;;5048251;28;20103;-69
2022/03/31 08:20:53;;;;;;;6.40;2.38;;;16.70;60.50;;;;;;5046361;28;20105;-68
2022/03/31 08:23:18;;;;;;;6.47;2.20;;;16.70;60.50;;;;;;5048680;28;20480;-68
2022/03/31 08:25:44;;;;;;;6.72;2.20;;;16.70;60.50;;;;;;5047866;28;20087;-69
2022/03/31 08:28:10;;;;;;;6.18;2.00;;;16.70;60.50;;;;;;5043932;28;20021;-68
2022/03/31 08:30:35;;;;;;;5.85;2.05;;;16.70;60.50;;;;;;5047911;28;20029;-67
2022/03/31 08:33:02;;;;;;;5.63;2.30;;;16.70;60.40;;;;;;5047408;28;20025;-68
2022/03/31 08:35:28;;;;;;;4.72;2.05;;;16.70;60.40;;;;;;5048436;28;20025;-68
2022/03/31 08:37:54;;;;;;;5.68;2.00;;;16.70;60.40;;;;;;5047037;28;20433;-68
2022/03/31 08:40:19;;;;;;;8.10;2.47;;;16.70;60.30;;;;;;5047543;28;20032;-68
2022/03/31 08:42:45;;;;;;;7.45;2.15;;;16.70;60.30;;;;;;5047389;28;20025;-68
2022/03/31 08:45:14;;;;;;;6.28;2.00;;;16.60;61.30;;;;;;5046244;28;20032;-68
2022/03/31 08:47:40;;;;;;;5.68;1.80;;;16.60;60.20;;;;;;5048274;28;20381;-68
2022/03/31 08:50:07;;;;;;;4.43;1.83;;;16.60;60.20;;;;;;5046755;28;20043;-67
2022/03/31 08:52:32;;;;;;;4.85;1.80;;;16.60;60.20;;;;;;5046582;28;20032;-68
2022/03/31 08:54:58;;;;;;;6.55;2.00;;;16.60;60.10;;;;;;5045922;28;20041;-68
2022/03/31 08:57:25;;;;;;;6.10;2.20;;;16.60;60.10;;;;;;5045421;28;20028;-68
2022/03/31 08:59:51;;;;;;;5.80;1.98;;;16.60;60.10;;;;;;5044851;28;20251;-68
2022/03/31 09:02:24;;;;;;;6.63;2.25;;;16.60;60.10;;;;;;5046564;28;20046;-69
2022/03/31 09:05:09;;;;;;;6.65;2.00;;;16.60;60.00;;;;;;5046570;28;20415;-68
2022/03/31 09:07:34;;;;;;;3.70;1.80;;;16.50;60.00;;;;;;5043460;28;20038;-68
2022/03/31 09:10:00;;;;;;;6.03;1.90;;;16.50;60.00;;;;;;5046282;28;20444;-68
2022/03/31 09:12:36;;;;;;;4.68;2.00;;;16.50;60.00;;;;;;5046175;28;20500;-68
2022/03/31 09:15:11;;;;;;;5.68;1.88;;;16.50;60.00;;;;;;5046780;28;20033;-68
2022/03/31 09:17:36;;;;;;;3.97;1.90;;;16.50;60.00;;;;;;5046856;28;20025;-68
2022/03/31 09:20:03;;;;;;;5.72;1.70;;;16.50;60.00;;;;;;5044896;28;20036;-68
2022/03/31 09:22:28;;;;;;;4.65;1.80;;;16.50;60.00;;;;;;5046441;28;20398;-68
2022/03/31 09:25:04;;;;;;;5.55;1.63;;;16.50;59.90;;;;;;5043736;28;20033;-68
2022/03/31 09:27:29;;;;;;;5.63;1.70;;;16.50;59.90;;;;;;5046310;28;20110;-68
2022/03/31 09:30:04;;;;;;;3.60;1.55;;;16.50;59.90;;;;;;5047146;28;20606;-67
2022/03/31 09:32:30;;;;;;;4.05;1.63;;;16.50;59.80;;;;;;5047623;28;20060;-68
2022/03/31 09:35:04;;;;;;;4.25;1.65;;;16.40;59.80;;;;;;5046306;28;20493;-68
2022/03/31 09:37:30;;;;;;;4.05;1.60;;;16.40;59.80;;;;;;5046174;28;20056;-68
2022/03/31 09:39:56;;;;;;;3.47;1.42;;;16.40;59.70;;;;;;5043991;28;20029;-67
2022/03/31 09:42:22;;;;;;;5.32;1.70;;;16.50;59.90;;;;;;5046502;28;20044;-68
2022/03/31 09:44:58;;;;;;;5.40;1.63;;;16.40;59.70;;;;;;5045922;28;20040;-68
2022/03/31 09:47:26;;;;;;;4.18;1.70;;;16.40;59.70;;;;;;5046029;28;20429;-68
2022/03/31 09:49:55;;;;;;;3.28;1.48;;;16.40;59.70;;;;;;5045611;28;20067;-68
2022/03/31 09:52:21;;;;;;;5.68;1.52;;;16.40;59.70;;;;;;5044297;28;20024;-68
2022/03/31 09:54:48;;;;;;;4.05;1.60;;;16.40;59.60;;;;;;5044625;28;20048;-68
2022/03/31 09:57:13;;;;;;;3.65;1.60;;;16.40;59.60;;;;;;5045262;28;20025;-68
2022/03/31 09:59:39;;;;;;;3.35;1.40;;;16.40;59.50;;;;;;5040351;28;20401;-68
2022/03/31 10:02:06;;;;;;;3.72;1.40;;;16.40;59.40;;;;;;5045078;28;20040;-68
2022/03/31 10:04:32;;;;;;;4.05;1.65;;;16.50;59.50;;;;;;5045852;28;20044;-68
2022/03/31 10:06:58;;;;;;;3.75;1.50;;;16.50;59.50;;;;;;5046239;28;20021;-68
2022/03/31 10:09:23;;;;;;;4.32;1.50;;;16.50;59.50;;;;;;5046220;28;20035;-68
2022/03/31 10:12:13;;;;;;;4.28;1.50;;;16.50;59.50;;;;;;5045285;28;20032;-68
2022/03/31 10:14:54;;;;;;;4.45;1.52;;;16.50;59.40;;;;;;5041869;28;20037;-68
2022/03/31 10:17:25;;;;;;;4.57;1.55;;;16.50;59.30;;;;;;5044092;28;20098;-68
2022/03/31 10:19:50;;;;;;;4.78;1.40;;;16.40;59.30;;;;;;5044185;28;20087;-68
2022/03/31 10:25:07;;;;;;;4.47;1.50;;;16.40;59.20;;;;;;5046039;28;20075;-69
2022/03/31 10:27:40;;;;;;;4.28;1.38;;;16.40;59.20;;;;;;5045805;28;20029;-68
2022/03/31 10:30:19;;;;;;;3.92;1.40;;;16.40;59.30;;;;;;5040903;28;20468;-68
2022/03/31 10:32:58;;;;;;;3.95;1.30;;;16.40;59.20;;;;;;5045603;28;20087;-68
2022/03/31 10:35:27;;;;;;;3.75;1.40;;;16.40;59.20;;;;;;5045147;28;20048;-68
2022/03/31 10:37:53;;;;;;;5.00;1.52;;;16.40;59.20;;;;;;5045505;28;20132;-69
2022/03/31 10:40:33;;;;;;;2.78;1.40;;;16.30;59.10;;;;;;5045855;28;20017;-68
2022/03/31 10:42:59;;;;;;;2.95;1.30;;;16.40;59.10;;;;;;5045395;28;20063;-68
2022/03/31 10:45:42;;;;;;;4.45;1.45;;;16.40;59.10;;;;;;5045382;28;20049;-68
2022/03/31 10:48:13;;;;;;;3.20;1.40;;;16.30;59.00;;;;;;5044325;28;20033;-69
2022/03/31 10:50:38;;;;;;;3.72;1.45;;;16.30;59.00;;;;;;5046301;28;20025;-68
2022/03/31 10:53:04;;;;;;;4.00;1.60;;;16.30;58.90;;;;;;5045866;28;20516;-69
2022/03/31 10:55:37;;;;;;;3.63;1.20;;;16.30;59.00;;;;;;5045549;28;20515;-69
2022/03/31 10:58:03;;;;;;;4.07;1.42;;;16.30;58.90;;;;;;5046555;28;20056;-68
2022/03/31 11:00:29;;;;;;;3.88;1.50;;;16.30;59.00;;;;;;5049085;28;20108;-68
2022/03/31 11:02:55;;;;;;;3.90;1.50;;;16.30;59.00;;;;;;5048935;28;20170;-69
2022/03/31 11:05:25;;;;;;;4.63;1.58;;;16.30;59.00;;;;;;5050131;28;20093;-68
2022/03/31 11:08:04;;;;;;;4.95;1.48;;;16.30;58.90;;;;;;5049177;28;20053;-68
2022/03/31 11:10:40;;;;;;;3.20;1.50;;;16.30;58.90;;;;;;5044419;28;20036;-69
2022/03/31 11:13:07;;;;;;;3.92;1.27;;;16.30;58.90;;;;;;5045723;28;20049;-69
2022/03/31 11:15:33;;;;;;;3.38;1.30;;;16.30;58.90;;;;;;5048682;28;20051;-69
2022/03/31 11:18:01;;;;;;;4.07;1.60;;;16.30;58.70;;;;;;5049314;28;20021;-68
2022/03/31 11:20:27;;;;;;;3.28;1.20;;;16.30;58.80;;;;;;5049584;28;20052;-69
2022/03/31 11:22:59;;;;;;;3.85;1.40;;;16.30;58.70;;;;;;5048957;28;20025;-68
2022/03/31 11:25:25;;;;;;;4.35;1.50;;;16.30;58.70;;;;;;5048575;28;20040;-68
2022/03/31 11:27:52;;;;;;;3.10;1.33;;;16.30;58.50;;;;;;5049022;28;20017;-69
2022/03/31 11:30:23;;;;;;;2.92;1.20;;;16.30;58.60;;;;;;5046568;28;20021;-69
2022/03/31 11:32:51;;;;;;;3.97;1.33;;;16.30;58.50;;;;;;5048819;28;20029;-69
2022/03/31 11:35:20;;;;;;;3.78;1.55;;;16.30;58.40;;;;;;5049027;28;20032;-68
2022/03/31 11:38:00;;;;;;;3.60;1.33;;;16.30;58.20;;;;;;5048588;28;20037;-68
2022/03/31 11:40:28;;;;;;;2.97;1.20;;;16.40;58.20;;;;;;5048817;28;20414;-69
2022/03/31 11:42:55;;;;;;;4.07;1.50;;;16.40;58.20;;;;;;5048009;28;20025;-68
2022/03/31 11:45:27;;;;;;;4.47;1.30;;;16.40;58.20;;;;;;5047790;28;20033;-68
2022/03/31 11:47:56;;;;;;;4.30;1.30;;;16.40;58.10;;;;;;5049366;28;20056;-69
2022/03/31 11:50:23;;;;;;;3.90;1.30;;;16.50;58.10;;;;;;5049731;28;20033;-68
2022/03/31 11:52:49;;;;;;;3.83;1.35;;;16.50;58.00;;;;;;5048242;28;20039;-68
2022/03/31 11:55:14;;;;;;;2.83;1.13;;;16.50;57.90;;;;;;5048533;28;20033;-69
2022/03/31 11:57:49;;;;;;;2.92;1.20;;;16.50;57.80;;;;;;5048155;28;20757;-69
2022/03/31 12:00:15;;;;;;;3.72;1.30;;;16.50;57.70;;;;;;5045211;28;20547;-68
2022/03/31 12:02:40;;;;;;;2.67;1.30;;;16.50;57.80;;;;;;5046648;28;20033;-68
2022/03/31 12:05:13;;;;;;;2.53;1.17;;;16.50;57.80;;;;;;5048064;28;20451;-69
2022/03/31 12:07:38;;;;;;;1.92;1.10;;;16.50;57.70;;;;;;5047687;28;20401;-68
2022/03/31 12:10:04;;;;;;;3.58;1.10;;;16.50;57.70;;;;;;5047188;28;20032;-68
2022/03/31 12:12:30;;;;;;;2.53;1.10;;;16.50;57.50;;;;;;5041995;28;20190;-69
2022/03/31 12:14:57;;;;;;;3.88;1.30;;;16.50;57.60;;;;;;5047215;28;20588;-68
2022/03/31 12:17:23;;;;;;;2.95;1.33;;;16.50;57.50;;;;;;5048282;28;20401;-69
2022/03/31 12:19:49;;;;;;;2.33;1.15;;;16.50;57.40;;;;;;5046931;28;20036;-69
2022/03/31 12:22:15;;;;;;;4.15;1.15;;;16.60;57.40;;;;;;5046897;28;20027;-69
2022/03/31 12:24:50;;;;;;;3.38;1.10;;;16.60;57.50;;;;;;5046475;28;20041;-68
2022/03/31 12:27:16;;;;;;;;;;;16.50;57.30;;;;;;5047120;28;20401;-67
2022/03/31 12:29:43;;;;;;;2.40;1.10;;;16.50;57.20;;;;;;5048082;28;19908;-69
2022/03/31 12:32:13;;;;;;;2.40;0.85;;;16.60;57.30;;;;;;5045855;28;20029;-69
2022/03/31 12:34:40;;;;;;;3.55;1.13;;;16.70;57.30;;;;;;5045544;28;20057;-69
2022/03/31 12:37:06;;;;;;;3.80;1.20;;;16.70;58.30;;;;;;5042595;28;20033;-67
2022/03/31 12:39:41;;;;;;;4.13;1.20;;;16.70;57.10;;;;;;5044157;28;20048;-67
2022/03/31 12:42:08;;;;;;;4.00;1.30;;;16.60;57.00;;;;;;5045610;28;20029;-69
2022/03/31 12:44:38;;;;;;;5.05;1.20;;;16.70;57.10;;;;;;5047260;28;20017;-67
2022/03/31 12:47:04;;;;;;;2.55;1.10;;;16.70;57.20;;;;;;5047101;28;20036;-67
2022/03/31 12:49:37;;;;;;;2.60;1.00;;;16.70;57.10;;;;;;5046531;28;20022;-73